This is the latest recevied weather packets stored in our database for station/object K5FEP. If no packets are shown the sender has not sent any weather packets the latest 10 day(s).
| Time | Temp. | Humidity | Pressure | Rain* | Wind** | Luminosity | Snow |
|---|---|---|---|---|---|---|---|
| 1777516472 | 17.22° C | 96% | 1008.4 hPa | 0 mm | - | 0 W/m² | - |
| 1777516167 | 17.22° C | 96% | 1008.4 hPa | 0 mm | - | 0 W/m² | - |
| 1777515865 | 17.22° C | 96% | 1008.5 hPa | 0 mm | - | 0 W/m² | - |
| 1777515561 | 17.22° C | 96% | 1008.4 hPa | 0 mm | - | 0 W/m² | - |
| 1777515259 | 17.22° C | 96% | 1008.2 hPa | 0 mm | - | 0 W/m² | - |
| 1777514954 | 17.22° C | 95% | 1008.1 hPa | 0 mm | - | 0 W/m² | - |
| 1777514651 | 17.22° C | 95% | 1008 hPa | 0 mm | - | 0 W/m² | - |
| 1777514348 | 17.22° C | 95% | 1008 hPa | 0 mm | - | 0 W/m² | - |
| 1777514045 | 17.22° C | 95% | 1008.1 hPa | 0 mm | - | 0 W/m² | - |
| 1777513742 | 17.22° C | 95% | 1007.9 hPa | 1.78 mm | - | 0 W/m² | - |
| 1777513439 | 17.78° C | 95% | 1007.9 hPa | 16.76 mm | - | 0 W/m² | - |
| 1777513136 | 17.78° C | 95% | 1008.1 hPa | 25.91 mm | - | 0 W/m² | - |
| 1777512831 | 17.78° C | 95% | 1008.6 hPa | 24.64 mm | - | 0 W/m² | - |
| 1777512528 | 17.78° C | 94% | 1008.2 hPa | 14.99 mm | - | 0 W/m² | - |
| 1777512225 | 17.78° C | 94% | 1007.6 hPa | 1.27 mm | - | 0 W/m² | - |
| 1777511922 | 17.78° C | 94% | 1007.4 hPa | 1.78 mm | - | 0 W/m² | - |
| 1777511620 | 17.78° C | 94% | 1007.4 hPa | 1.78 mm | - | 0 W/m² | - |
| 1777511317 | 17.78° C | 93% | 1007.2 hPa | 0 mm | - | 0 W/m² | - |
| 1777511013 | 17.78° C | 93% | 1007.1 hPa | 0 mm | - | 0 W/m² | - |
| 1777510710 | 17.78° C | 93% | 1007 hPa | 0 mm | - | 0 W/m² | - |
| 1777510406 | 17.78° C | 93% | 1007.1 hPa | 0 mm | - | 0 W/m² | - |
| 1777510102 | 17.78° C | 93% | 1007.1 hPa | 0 mm | - | 0 W/m² | - |
| 1777509799 | 17.22° C | 93% | 1007.2 hPa | 0 mm | - | 0 W/m² | - |
| 1777509495 | 17.22° C | 93% | 1007.1 hPa | 0 mm | - | 0 W/m² | - |
| 1777509192 | 17.78° C | 92% | 1007.3 hPa | 0 mm | - | 0 W/m² | - |
* Rain latest hour (hover to see other rain measurements)
** Current wind speed in m/s (hover to see current wind gust speed)